Indian Point, Vermont
Current Conditions -  °F | °C
As of 1:55 AM on Thursday 27 Nov 2014 (Local Time) from KEFK Reporting Station
Light Snow Light Snow  
Wind Chill: 16°   Ceiling: 1000
Heat Index: 27°   Visibility: 2mi
Dew Point: 25°   Wind: 12mph
Humidity: 93%   Direction: 340°NNW
Pressure: 29.89"   Gusts: NA
Location:  44.9201°N, 72.2004°W
Report Text: KEFK 270655Z AUTO 34010KT 2SM -SN OVC010 M03/M04 A2989 RMK AO2 T10301040
Loading
Personal Weather Stations






























Interactive Weather Map New forecast layout! Learn more

10-Day Weather Forecast

Advertisements
Track Severe Weather on mobile